sensor_id;sensor_type;location;lat;lon;timestamp;P1;durP1;ratioP1;P2;durP2;ratioP2
61460;SDS011;47325;50.506;4.472;2022-08-19T00:05:31;7.30;;;6.60;;
61460;SDS011;47325;50.506;4.472;2022-08-19T00:11:15;7.00;;;6.30;;
61460;SDS011;47325;50.506;4.472;2022-08-19T00:17:07;7.10;;;6.40;;
61460;SDS011;47325;50.506;4.472;2022-08-19T00:22:51;7.80;;;6.20;;
61460;SDS011;47325;50.506;4.472;2022-08-19T00:28:35;6.90;;;6.30;;
61460;SDS011;47325;50.506;4.472;2022-08-19T00:34:18;7.40;;;6.40;;
61460;SDS011;47325;50.506;4.472;2022-08-19T00:40:02;7.20;;;6.50;;
61460;SDS011;47325;50.506;4.472;2022-08-19T00:45:47;6.90;;;6.20;;
61460;SDS011;47325;50.506;4.472;2022-08-19T00:51:31;7.50;;;6.30;;
61460;SDS011;47325;50.506;4.472;2022-08-19T00:57:15;7.00;;;6.30;;
61460;SDS011;47325;50.506;4.472;2022-08-19T01:03:00;7.60;;;6.60;;
61460;SDS011;47325;50.506;4.472;2022-08-19T01:08:43;6.80;;;6.10;;
61460;SDS011;47325;50.506;4.472;2022-08-19T01:14:30;7.80;;;6.60;;
61460;SDS011;47325;50.506;4.472;2022-08-19T01:20:17;7.20;;;6.50;;
61460;SDS011;47325;50.506;4.472;2022-08-19T01:26:03;7.90;;;6.90;;
61460;SDS011;47325;50.506;4.472;2022-08-19T01:31:48;7.60;;;6.80;;
61460;SDS011;47325;50.506;4.472;2022-08-19T01:37:40;8.70;;;6.70;;
61460;SDS011;47325;50.506;4.472;2022-08-19T01:43:21;8.00;;;6.60;;
61460;SDS011;47325;50.506;4.472;2022-08-19T01:49:05;7.00;;;6.30;;
61460;SDS011;47325;50.506;4.472;2022-08-19T01:54:48;7.10;;;6.40;;
61460;SDS011;47325;50.506;4.472;2022-08-19T02:00:32;7.80;;;7.00;;
61460;SDS011;47325;50.506;4.472;2022-08-19T02:06:15;7.40;;;6.60;;
61460;SDS011;47325;50.506;4.472;2022-08-19T02:12:04;8.30;;;6.80;;
61460;SDS011;47325;50.506;4.472;2022-08-19T02:17:48;7.90;;;6.90;;
61460;SDS011;47325;50.506;4.472;2022-08-19T02:23:32;7.70;;;6.70;;
61460;SDS011;47325;50.506;4.472;2022-08-19T02:29:15;7.80;;;6.60;;
61460;SDS011;47325;50.506;4.472;2022-08-19T02:34:59;9.30;;;6.90;;
61460;SDS011;47325;50.506;4.472;2022-08-19T02:40:54;8.20;;;7.00;;
61460;SDS011;47325;50.506;4.472;2022-08-19T02:46:37;8.40;;;7.40;;
61460;SDS011;47325;50.506;4.472;2022-08-19T02:52:22;9.30;;;7.70;;
61460;SDS011;47325;50.506;4.472;2022-08-19T02:58:05;9.70;;;7.40;;
61460;SDS011;47325;50.506;4.472;2022-08-19T03:03:50;9.10;;;7.40;;
61460;SDS011;47325;50.506;4.472;2022-08-19T03:09:35;9.70;;;8.00;;
61460;SDS011;47325;50.506;4.472;2022-08-19T03:15:19;11.20;;;8.20;;
61460;SDS011;47325;50.506;4.472;2022-08-19T03:21:03;9.80;;;8.10;;
61460;SDS011;47325;50.506;4.472;2022-08-19T03:26:52;9.90;;;8.30;;
61460;SDS011;47325;50.506;4.472;2022-08-19T03:32:37;9.40;;;8.00;;
61460;SDS011;47325;50.506;4.472;2022-08-19T03:38:37;10.50;;;7.90;;
61460;SDS011;47325;50.506;4.472;2022-08-19T03:44:22;9.40;;;7.70;;
61460;SDS011;47325;50.506;4.472;2022-08-19T03:50:06;8.70;;;7.20;;
61460;SDS011;47325;50.506;4.472;2022-08-19T03:55:49;7.70;;;6.90;;
61460;SDS011;47325;50.506;4.472;2022-08-19T04:01:32;7.80;;;6.90;;
61460;SDS011;47325;50.506;4.472;2022-08-19T04:07:19;8.80;;;6.80;;
61460;SDS011;47325;50.506;4.472;2022-08-19T04:13:02;10.40;;;6.70;;
61460;SDS011;47325;50.506;4.472;2022-08-19T04:18:46;7.20;;;6.50;;
61460;SDS011;47325;50.506;4.472;2022-08-19T04:24:30;10.20;;;7.60;;
61460;SDS011;47325;50.506;4.472;2022-08-19T04:30:16;9.30;;;7.40;;
61460;SDS011;47325;50.506;4.472;2022-08-19T04:35:59;9.10;;;7.00;;
61460;SDS011;47325;50.506;4.472;2022-08-19T04:41:42;9.30;;;6.70;;
61460;SDS011;47325;50.506;4.472;2022-08-19T04:47:26;11.20;;;7.60;;
61460;SDS011;47325;50.506;4.472;2022-08-19T04:53:31;11.80;;;8.60;;
61460;SDS011;47325;50.506;4.472;2022-08-19T04:59:20;12.10;;;8.50;;
61460;SDS011;47325;50.506;4.472;2022-08-19T05:05:05;10.40;;;8.00;;
61460;SDS011;47325;50.506;4.472;2022-08-19T05:10:49;10.60;;;8.00;;
61460;SDS011;47325;50.506;4.472;2022-08-19T05:16:33;15.00;;;11.00;;
61460;SDS011;47325;50.506;4.472;2022-08-19T05:22:17;15.00;;;10.10;;
61460;SDS011;47325;50.506;4.472;2022-08-19T05:28:00;14.60;;;9.80;;
61460;SDS011;47325;50.506;4.472;2022-08-19T05:33:44;15.10;;;9.70;;
61460;SDS011;47325;50.506;4.472;2022-08-19T05:39:29;15.80;;;9.70;;
61460;SDS011;47325;50.506;4.472;2022-08-19T05:45:13;13.60;;;9.50;;
61460;SDS011;47325;50.506;4.472;2022-08-19T05:50:56;14.10;;;9.20;;
61460;SDS011;47325;50.506;4.472;2022-08-19T05:56:41;13.10;;;8.40;;
61460;SDS011;47325;50.506;4.472;2022-08-19T06:02:25;10.90;;;7.70;;
61460;SDS011;47325;50.506;4.472;2022-08-19T06:08:10;13.50;;;7.70;;
61460;SDS011;47325;50.506;4.472;2022-08-19T06:13:54;12.20;;;6.40;;
61460;SDS011;47325;50.506;4.472;2022-08-19T06:19:42;13.00;;;6.70;;
61460;SDS011;47325;50.506;4.472;2022-08-19T06:25:25;8.80;;;5.40;;
61460;SDS011;47325;50.506;4.472;2022-08-19T06:31:14;8.60;;;5.20;;
61460;SDS011;47325;50.506;4.472;2022-08-19T06:36:59;8.70;;;4.80;;
61460;SDS011;47325;50.506;4.472;2022-08-19T06:42:44;10.50;;;4.90;;
61460;SDS011;47325;50.506;4.472;2022-08-19T06:48:40;8.40;;;4.80;;
61460;SDS011;47325;50.506;4.472;2022-08-19T06:54:28;6.70;;;3.90;;
61460;SDS011;47325;50.506;4.472;2022-08-19T07:00:29;7.60;;;3.80;;
61460;SDS011;47325;50.506;4.472;2022-08-19T07:06:16;6.50;;;3.80;;
61460;SDS011;47325;50.506;4.472;2022-08-19T07:12:19;6.70;;;4.20;;
61460;SDS011;47325;50.506;4.472;2022-08-19T07:18:07;8.30;;;4.50;;
61460;SDS011;47325;50.506;4.472;2022-08-19T07:23:54;7.70;;;4.10;;
61460;SDS011;47325;50.506;4.472;2022-08-19T07:29:37;8.00;;;4.40;;
61460;SDS011;47325;50.506;4.472;2022-08-19T07:35:21;8.60;;;4.40;;
61460;SDS011;47325;50.506;4.472;2022-08-19T07:41:04;7.40;;;4.40;;
61460;SDS011;47325;50.506;4.472;2022-08-19T07:46:49;8.70;;;4.70;;
61460;SDS011;47325;50.506;4.472;2022-08-19T07:52:35;8.30;;;4.20;;
61460;SDS011;47325;50.506;4.472;2022-08-19T07:58:20;8.80;;;4.60;;
61460;SDS011;47325;50.506;4.472;2022-08-19T08:04:03;7.90;;;4.20;;
61460;SDS011;47325;50.506;4.472;2022-08-19T08:09:49;8.00;;;4.20;;
61460;SDS011;47325;50.506;4.472;2022-08-19T08:15:37;10.60;;;4.00;;
61460;SDS011;47325;50.506;4.472;2022-08-19T08:21:25;6.50;;;3.60;;
61460;SDS011;47325;50.506;4.472;2022-08-19T08:27:10;6.80;;;3.20;;
61460;SDS011;47325;50.506;4.472;2022-08-19T08:33:01;5.40;;;3.70;;
61460;SDS011;47325;50.506;4.472;2022-08-19T08:38:46;4.70;;;3.20;;
61460;SDS011;47325;50.506;4.472;2022-08-19T08:44:32;6.00;;;3.40;;
61460;SDS011;47325;50.506;4.472;2022-08-19T08:50:25;6.30;;;4.10;;
61460;SDS011;47325;50.506;4.472;2022-08-19T08:56:10;6.70;;;4.20;;
61460;SDS011;47325;50.506;4.472;2022-08-19T09:01:58;4.30;;;2.20;;
61460;SDS011;47325;50.506;4.472;2022-08-19T09:07:46;3.60;;;2.10;;
61460;SDS011;47325;50.506;4.472;2022-08-19T09:13:36;4.30;;;2.60;;
61460;SDS011;47325;50.506;4.472;2022-08-19T09:19:21;6.00;;;3.00;;
61460;SDS011;47325;50.506;4.472;2022-08-19T09:25:10;6.00;;;3.10;;
61460;SDS011;47325;50.506;4.472;2022-08-19T09:30:54;14.80;;;7.80;;
61460;SDS011;47325;50.506;4.472;2022-08-19T09:36:39;10.60;;;6.30;;
61460;SDS011;47325;50.506;4.472;2022-08-19T09:42:22;10.20;;;6.20;;
61460;SDS011;47325;50.506;4.472;2022-08-19T09:48:16;7.90;;;5.20;;
61460;SDS011;47325;50.506;4.472;2022-08-19T09:54:06;7.20;;;4.70;;
61460;SDS011;47325;50.506;4.472;2022-08-19T09:59:59;7.00;;;4.60;;
61460;SDS011;47325;50.506;4.472;2022-08-19T10:05:43;7.50;;;4.20;;
61460;SDS011;47325;50.506;4.472;2022-08-19T10:11:34;8.00;;;4.00;;
61460;SDS011;47325;50.506;4.472;2022-08-19T10:17:34;5.90;;;4.00;;
61460;SDS011;47325;50.506;4.472;2022-08-19T10:23:25;7.70;;;4.40;;
61460;SDS011;47325;50.506;4.472;2022-08-19T10:29:18;5.50;;;3.80;;
61460;SDS011;47325;50.506;4.472;2022-08-19T10:35:13;4.90;;;3.50;;
61460;SDS011;47325;50.506;4.472;2022-08-19T10:41:13;4.70;;;3.40;;
61460;SDS011;47325;50.506;4.472;2022-08-19T10:46:57;4.90;;;3.20;;
61460;SDS011;47325;50.506;4.472;2022-08-19T10:52:44;3.90;;;2.90;;
61460;SDS011;47325;50.506;4.472;2022-08-19T10:58:36;4.60;;;2.80;;
61460;SDS011;47325;50.506;4.472;2022-08-19T11:04:19;3.80;;;2.40;;
61460;SDS011;47325;50.506;4.472;2022-08-19T11:10:12;2.90;;;2.30;;
61460;SDS011;47325;50.506;4.472;2022-08-19T11:16:04;2.60;;;2.10;;
61460;SDS011;47325;50.506;4.472;2022-08-19T11:21:51;2.80;;;1.80;;
61460;SDS011;47325;50.506;4.472;2022-08-19T11:27:43;2.70;;;1.90;;
61460;SDS011;47325;50.506;4.472;2022-08-19T11:33:28;2.70;;;1.80;;
61460;SDS011;47325;50.506;4.472;2022-08-19T11:39:13;3.00;;;1.80;;
61460;SDS011;47325;50.506;4.472;2022-08-19T11:44:57;2.90;;;1.80;;
61460;SDS011;47325;50.506;4.472;2022-08-19T11:50:40;1.80;;;1.60;;
61460;SDS011;47325;50.506;4.472;2022-08-19T11:56:24;2.30;;;1.50;;
61460;SDS011;47325;50.506;4.472;2022-08-19T12:02:07;2.80;;;1.60;;
61460;SDS011;47325;50.506;4.472;2022-08-19T12:07:51;2.30;;;1.40;;
61460;SDS011;47325;50.506;4.472;2022-08-19T12:13:36;1.80;;;1.60;;
61460;SDS011;47325;50.506;4.472;2022-08-19T12:19:20;2.40;;;1.50;;
61460;SDS011;47325;50.506;4.472;2022-08-19T12:25:05;2.40;;;1.50;;
61460;SDS011;47325;50.506;4.472;2022-08-19T12:30:50;2.30;;;1.40;;
61460;SDS011;47325;50.506;4.472;2022-08-19T12:36:37;1.70;;;1.40;;
61460;SDS011;47325;50.506;4.472;2022-08-19T12:42:21;2.20;;;1.20;;
61460;SDS011;47325;50.506;4.472;2022-08-19T12:48:04;3.00;;;1.40;;
61460;SDS011;47325;50.506;4.472;2022-08-19T12:54:08;2.60;;;1.30;;
61460;SDS011;47325;50.506;4.472;2022-08-19T12:59:55;1.70;;;1.10;;
61460;SDS011;47325;50.506;4.472;2022-08-19T13:05:40;1.90;;;1.10;;
61460;SDS011;47325;50.506;4.472;2022-08-19T13:11:23;1.20;;;1.10;;
61460;SDS011;47325;50.506;4.472;2022-08-19T13:17:07;1.50;;;1.10;;
61460;SDS011;47325;50.506;4.472;2022-08-19T13:22:52;2.20;;;1.00;;
61460;SDS011;47325;50.506;4.472;2022-08-19T13:28:36;1.80;;;1.00;;
61460;SDS011;47325;50.506;4.472;2022-08-19T13:34:25;1.70;;;1.10;;
61460;SDS011;47325;50.506;4.472;2022-08-19T13:40:14;1.60;;;1.00;;
61460;SDS011;47325;50.506;4.472;2022-08-19T13:46:00;1.30;;;0.80;;
61460;SDS011;47325;50.506;4.472;2022-08-19T13:51:49;1.40;;;0.90;;
61460;SDS011;47325;50.506;4.472;2022-08-19T13:57:32;1.90;;;0.90;;
61460;SDS011;47325;50.506;4.472;2022-08-19T14:03:16;1.80;;;0.80;;
61460;SDS011;47325;50.506;4.472;2022-08-19T14:09:01;1.50;;;0.80;;
61460;SDS011;47325;50.506;4.472;2022-08-19T14:14:44;1.30;;;0.60;;
61460;SDS011;47325;50.506;4.472;2022-08-19T14:20:29;2.30;;;0.90;;
61460;SDS011;47325;50.506;4.472;2022-08-19T14:26:15;0.70;;;0.60;;
61460;SDS011;47325;50.506;4.472;2022-08-19T14:31:58;1.00;;;0.70;;
61460;SDS011;47325;50.506;4.472;2022-08-19T14:37:43;0.90;;;0.60;;
61460;SDS011;47325;50.506;4.472;2022-08-19T14:43:32;0.90;;;0.60;;
61460;SDS011;47325;50.506;4.472;2022-08-19T14:49:17;0.90;;;0.60;;
61460;SDS011;47325;50.506;4.472;2022-08-19T14:55:13;2.30;;;0.60;;
61460;SDS011;47325;50.506;4.472;2022-08-19T15:00:57;0.80;;;0.50;;
61460;SDS011;47325;50.506;4.472;2022-08-19T15:06:41;1.30;;;0.60;;
61460;SDS011;47325;50.506;4.472;2022-08-19T15:12:25;4.10;;;1.00;;
61460;SDS011;47325;50.506;4.472;2022-08-19T15:18:09;2.80;;;0.70;;
61460;SDS011;47325;50.506;4.472;2022-08-19T15:23:53;3.30;;;0.70;;
61460;SDS011;47325;50.506;4.472;2022-08-19T15:29:36;1.30;;;0.50;;
61460;SDS011;47325;50.506;4.472;2022-08-19T15:35:21;1.90;;;0.70;;
61460;SDS011;47325;50.506;4.472;2022-08-19T15:41:05;2.10;;;0.70;;
61460;SDS011;47325;50.506;4.472;2022-08-19T15:46:49;3.50;;;1.10;;
61460;SDS011;47325;50.506;4.472;2022-08-19T15:52:32;2.90;;;1.10;;
61460;SDS011;47325;50.506;4.472;2022-08-19T15:58:29;1.70;;;1.00;;
61460;SDS011;47325;50.506;4.472;2022-08-19T16:04:14;1.00;;;0.70;;
61460;SDS011;47325;50.506;4.472;2022-08-19T16:10:00;3.40;;;0.70;;
61460;SDS011;47325;50.506;4.472;2022-08-19T16:16:03;0.90;;;0.70;;
61460;SDS011;47325;50.506;4.472;2022-08-19T16:21:47;1.50;;;0.80;;
61460;SDS011;47325;50.506;4.472;2022-08-19T16:27:31;1.10;;;0.60;;
61460;SDS011;47325;50.506;4.472;2022-08-19T16:33:15;2.40;;;0.80;;
61460;SDS011;47325;50.506;4.472;2022-08-19T16:39:04;1.80;;;0.80;;
61460;SDS011;47325;50.506;4.472;2022-08-19T16:44:47;1.60;;;0.80;;
61460;SDS011;47325;50.506;4.472;2022-08-19T16:50:31;1.60;;;0.80;;
61460;SDS011;47325;50.506;4.472;2022-08-19T16:56:29;2.50;;;1.00;;
61460;SDS011;47325;50.506;4.472;2022-08-19T17:02:13;2.60;;;0.70;;
61460;SDS011;47325;50.506;4.472;2022-08-19T17:07:56;2.10;;;0.70;;
61460;SDS011;47325;50.506;4.472;2022-08-19T17:13:39;0.80;;;0.60;;
61460;SDS011;47325;50.506;4.472;2022-08-19T17:19:28;0.80;;;0.60;;
61460;SDS011;47325;50.506;4.472;2022-08-19T17:25:11;0.80;;;0.60;;
61460;SDS011;47325;50.506;4.472;2022-08-19T17:30:55;1.50;;;0.70;;
61460;SDS011;47325;50.506;4.472;2022-08-19T17:36:40;1.80;;;0.70;;
61460;SDS011;47325;50.506;4.472;2022-08-19T17:42:23;0.80;;;0.70;;
61460;SDS011;47325;50.506;4.472;2022-08-19T17:48:07;1.20;;;0.70;;
61460;SDS011;47325;50.506;4.472;2022-08-19T17:53:51;2.10;;;0.70;;
61460;SDS011;47325;50.506;4.472;2022-08-19T17:59:35;2.20;;;1.10;;
61460;SDS011;47325;50.506;4.472;2022-08-19T18:05:20;1.50;;;0.90;;
61460;SDS011;47325;50.506;4.472;2022-08-19T18:11:04;2.80;;;1.10;;
61460;SDS011;47325;50.506;4.472;2022-08-19T18:16:47;2.10;;;1.00;;
61460;SDS011;47325;50.506;4.472;2022-08-19T18:22:34;1.30;;;1.10;;
61460;SDS011;47325;50.506;4.472;2022-08-19T18:28:19;3.90;;;1.30;;
61460;SDS011;47325;50.506;4.472;2022-08-19T18:34:03;3.10;;;1.20;;
61460;SDS011;47325;50.506;4.472;2022-08-19T18:39:47;3.00;;;1.30;;
61460;SDS011;47325;50.506;4.472;2022-08-19T18:45:31;3.00;;;1.50;;
61460;SDS011;47325;50.506;4.472;2022-08-19T18:51:16;2.30;;;1.70;;
61460;SDS011;47325;50.506;4.472;2022-08-19T18:57:01;3.00;;;1.70;;
61460;SDS011;47325;50.506;4.472;2022-08-19T19:02:46;3.70;;;1.90;;
61460;SDS011;47325;50.506;4.472;2022-08-19T19:08:30;4.50;;;1.80;;
61460;SDS011;47325;50.506;4.472;2022-08-19T19:14:15;3.90;;;2.10;;
61460;SDS011;47325;50.506;4.472;2022-08-19T19:20:19;3.00;;;2.00;;
61460;SDS011;47325;50.506;4.472;2022-08-19T19:26:11;2.50;;;1.80;;
61460;SDS011;47325;50.506;4.472;2022-08-19T19:31:54;3.80;;;1.80;;
61460;SDS011;47325;50.506;4.472;2022-08-19T19:37:37;2.50;;;1.50;;
61460;SDS011;47325;50.506;4.472;2022-08-19T19:43:21;4.00;;;1.30;;
61460;SDS011;47325;50.506;4.472;2022-08-19T19:49:05;2.90;;;1.30;;
61460;SDS011;47325;50.506;4.472;2022-08-19T19:54:49;2.20;;;0.90;;
61460;SDS011;47325;50.506;4.472;2022-08-19T20:00:33;3.20;;;1.10;;
61460;SDS011;47325;50.506;4.472;2022-08-19T20:06:17;1.70;;;1.00;;
61460;SDS011;47325;50.506;4.472;2022-08-19T20:12:00;2.40;;;1.10;;
61460;SDS011;47325;50.506;4.472;2022-08-19T20:17:44;1.20;;;1.00;;
61460;SDS011;47325;50.506;4.472;2022-08-19T20:23:27;1.20;;;0.90;;
61460;SDS011;47325;50.506;4.472;2022-08-19T20:29:10;2.30;;;1.10;;
61460;SDS011;47325;50.506;4.472;2022-08-19T20:35:14;2.20;;;1.00;;
61460;SDS011;47325;50.506;4.472;2022-08-19T20:40:59;1.20;;;0.80;;
61460;SDS011;47325;50.506;4.472;2022-08-19T20:46:42;1.60;;;0.90;;
61460;SDS011;47325;50.506;4.472;2022-08-19T20:52:43;1.40;;;0.90;;
61460;SDS011;47325;50.506;4.472;2022-08-19T20:58:35;2.60;;;1.10;;
61460;SDS011;47325;50.506;4.472;2022-08-19T21:04:18;1.70;;;0.70;;
61460;SDS011;47325;50.506;4.472;2022-08-19T21:10:03;2.20;;;1.00;;
61460;SDS011;47325;50.506;4.472;2022-08-19T21:15:47;1.90;;;0.90;;
61460;SDS011;47325;50.506;4.472;2022-08-19T21:21:30;2.20;;;1.00;;
61460;SDS011;47325;50.506;4.472;2022-08-19T21:27:15;1.90;;;1.00;;
61460;SDS011;47325;50.506;4.472;2022-08-19T21:32:58;1.30;;;0.80;;
61460;SDS011;47325;50.506;4.472;2022-08-19T21:38:42;1.20;;;1.00;;
61460;SDS011;47325;50.506;4.472;2022-08-19T21:44:26;1.00;;;0.80;;
61460;SDS011;47325;50.506;4.472;2022-08-19T21:50:09;1.30;;;0.70;;
61460;SDS011;47325;50.506;4.472;2022-08-19T21:55:53;1.30;;;0.90;;
61460;SDS011;47325;50.506;4.472;2022-08-19T22:01:37;1.70;;;1.00;;
61460;SDS011;47325;50.506;4.472;2022-08-19T22:07:30;2.70;;;1.00;;
61460;SDS011;47325;50.506;4.472;2022-08-19T22:13:15;1.60;;;1.00;;
61460;SDS011;47325;50.506;4.472;2022-08-19T22:18:58;2.30;;;0.90;;
61460;SDS011;47325;50.506;4.472;2022-08-19T22:24:42;1.60;;;1.00;;
61460;SDS011;47325;50.506;4.472;2022-08-19T22:30:25;2.70;;;1.10;;
61460;SDS011;47325;50.506;4.472;2022-08-19T22:36:15;2.00;;;1.20;;
61460;SDS011;47325;50.506;4.472;2022-08-19T22:42:00;2.20;;;1.10;;
61460;SDS011;47325;50.506;4.472;2022-08-19T22:47:43;1.50;;;1.10;;
61460;SDS011;47325;50.506;4.472;2022-08-19T22:53:26;2.10;;;1.30;;
61460;SDS011;47325;50.506;4.472;2022-08-19T22:59:10;2.60;;;1.00;;
61460;SDS011;47325;50.506;4.472;2022-08-19T23:04:53;2.50;;;1.10;;
61460;SDS011;47325;50.506;4.472;2022-08-19T23:10:36;2.10;;;1.10;;
61460;SDS011;47325;50.506;4.472;2022-08-19T23:16:21;2.80;;;1.30;;
61460;SDS011;47325;50.506;4.472;2022-08-19T23:22:07;2.80;;;1.20;;
61460;SDS011;47325;50.506;4.472;2022-08-19T23:27:55;3.00;;;1.40;;
61460;SDS011;47325;50.506;4.472;2022-08-19T23:33:41;3.70;;;1.30;;
61460;SDS011;47325;50.506;4.472;2022-08-19T23:39:33;2.40;;;1.20;;
61460;SDS011;47325;50.506;4.472;2022-08-19T23:45:21;2.00;;;1.30;;
61460;SDS011;47325;50.506;4.472;2022-08-19T23:51:09;1.60;;;1.10;;
61460;SDS011;47325;50.506;4.472;2022-08-19T23:56:53;2.90;;;1.30;;
